createdAt,value
2022-11-09T00:00:30.388Z,13.71
2022-11-09T00:03:03.910Z,13.64
2022-11-09T00:05:35.841Z,13.80
2022-11-09T00:08:09.643Z,13.67
2022-11-09T00:10:44.471Z,13.49
2022-11-09T00:13:16.704Z,13.55
2022-11-09T00:15:49.482Z,13.45
2022-11-09T00:18:21.720Z,13.54
2022-11-09T00:20:53.242Z,13.54
2022-11-09T00:23:26.210Z,13.47
2022-11-09T00:26:03.662Z,13.51
2022-11-09T00:28:36.329Z,13.53
2022-11-09T00:31:10.602Z,13.59
2022-11-09T00:33:43.150Z,13.59
2022-11-09T00:36:16.185Z,13.64
2022-11-09T00:38:52.730Z,13.80
2022-11-09T00:41:27.532Z,13.85
2022-11-09T00:43:59.610Z,13.88
2022-11-09T00:46:31.614Z,13.73
2022-11-09T00:49:03.881Z,13.67
2022-11-09T00:51:35.882Z,13.50
2022-11-09T00:54:08.564Z,13.58
2022-11-09T00:56:43.046Z,13.74
2022-11-09T00:59:15.193Z,13.45
2022-11-09T01:01:46.884Z,13.67
2022-11-09T01:04:18.852Z,13.57
2022-11-09T01:06:50.669Z,13.44
2022-11-09T01:09:22.680Z,13.48
2022-11-09T01:11:57.162Z,13.46
2022-11-09T01:14:29.139Z,13.41
2022-11-09T01:17:00.829Z,13.64
2022-11-09T01:19:32.884Z,13.46
2022-11-09T01:22:04.624Z,13.65
2022-11-09T01:24:36.760Z,13.41
2022-11-09T01:27:11.130Z,13.14
2022-11-09T01:29:42.944Z,13.32
2022-11-09T01:32:14.419Z,13.40
2022-11-09T01:34:46.372Z,13.26
2022-11-09T01:37:18.381Z,13.21
2022-11-09T01:39:50.550Z,13.10
2022-11-09T01:42:28.738Z,13.36
2022-11-09T01:45:26.052Z,13.15
2022-11-09T01:48:03.366Z,13.18
2022-11-09T01:50:41.552Z,13.22
2022-11-09T01:53:21.139Z,13.06
2022-11-09T01:55:56.460Z,12.87
2022-11-09T01:58:37.115Z,12.92
2022-11-09T02:01:11.553Z,13.00
2022-11-09T02:03:48.392Z,13.09
2022-11-09T02:06:23.934Z,13.00
2022-11-09T02:12:26.180Z,12.72
2022-11-09T02:15:02.583Z,12.76
2022-11-09T02:17:57.602Z,12.70
2022-11-09T02:20:32.122Z,12.66
2022-11-09T02:23:04.091Z,12.69
2022-11-09T02:25:35.623Z,12.75
2022-11-09T02:28:08.629Z,12.68
2022-11-09T02:30:40.469Z,12.62
2022-11-09T02:33:12.379Z,12.42
2022-11-09T02:35:46.711Z,12.32
2022-11-09T02:38:19.062Z,12.35
2022-11-09T02:40:54.572Z,12.45
2022-11-09T02:43:26.652Z,12.38
2022-11-09T02:45:58.492Z,12.56
2022-11-09T02:48:31.240Z,12.68
2022-11-09T02:51:05.508Z,12.62
2022-11-09T02:53:37.665Z,12.49
2022-11-09T02:56:10.011Z,12.61
2022-11-09T02:58:42.219Z,12.56
2022-11-09T03:01:13.775Z,12.40
2022-11-09T03:03:45.909Z,12.74
2022-11-09T03:06:32.657Z,12.68
2022-11-09T03:09:04.779Z,12.48
2022-11-09T03:11:36.712Z,12.57
2022-11-09T03:14:10.040Z,12.64
2022-11-09T03:16:46.494Z,12.54
2022-11-09T03:19:21.181Z,12.47
2022-11-09T03:21:55.449Z,12.48
2022-11-09T03:24:27.389Z,12.60
2022-11-09T03:26:59.037Z,12.56
2022-11-09T03:29:31.011Z,12.53
2022-11-09T03:32:02.919Z,12.60
2022-11-09T03:34:34.983Z,12.71
2022-11-09T03:37:09.461Z,12.81
2022-11-09T03:39:41.672Z,12.90
2022-11-09T03:42:13.361Z,13.01
2022-11-09T03:44:45.923Z,13.21
2022-11-09T03:47:17.921Z,13.38
2022-11-09T03:49:50.320Z,13.50
2022-11-09T03:52:25.292Z,13.20
2022-11-09T03:54:57.743Z,13.39
2022-11-09T03:57:29.638Z,13.55
2022-11-09T04:00:02.169Z,13.41
2022-11-09T04:02:56.081Z,13.59
2022-11-09T04:05:29.043Z,13.56
2022-11-09T04:08:03.860Z,13.58
2022-11-09T04:10:36.681Z,13.44
2022-11-09T04:17:07.474Z,13.17
2022-11-09T04:19:39.469Z,13.20
2022-11-09T04:22:11.589Z,13.14
2022-11-09T04:24:46.069Z,13.17
2022-11-09T04:27:18.132Z,13.30
2022-11-09T04:29:49.761Z,13.18
2022-11-09T04:32:22.172Z,12.98
2022-11-09T04:34:53.998Z,13.28
2022-11-09T04:37:26.170Z,13.41
2022-11-09T04:40:00.792Z,13.32
2022-11-09T04:42:32.884Z,13.16
2022-11-09T04:45:04.505Z,13.16
2022-11-09T04:47:36.730Z,13.18
2022-11-09T04:50:09.972Z,13.18
2022-11-09T04:52:41.849Z,13.25
2022-11-09T04:55:16.362Z,13.20
2022-11-09T04:58:00.792Z,13.00
2022-11-09T05:00:32.634Z,13.24
2022-11-09T05:03:04.851Z,12.99
2022-11-09T05:05:36.893Z,13.24
2022-11-09T05:08:09.962Z,13.01
2022-11-09T05:10:45.142Z,13.08
2022-11-09T05:13:17.866Z,13.14
2022-11-09T05:16:04.593Z,13.05
2022-11-09T05:18:36.672Z,13.16
2022-11-09T05:21:08.752Z,13.19
2022-11-09T05:23:53.485Z,13.24
2022-11-09T05:26:27.712Z,13.21
2022-11-09T05:29:00.870Z,13.17
2022-11-09T05:31:33.762Z,13.13
2022-11-09T05:34:06.473Z,13.14
2022-11-09T05:36:38.369Z,13.27
2022-11-09T05:39:10.574Z,13.19
2022-11-09T05:41:44.921Z,13.17
2022-11-09T05:44:16.970Z,13.21
2022-11-09T05:46:49.032Z,13.08
2022-11-09T05:49:21.236Z,13.13
2022-11-09T05:51:53.051Z,13.32
2022-11-09T05:54:25.239Z,13.19
2022-11-09T05:57:02.041Z,13.38
2022-11-09T05:59:34.132Z,13.25
2022-11-09T06:02:06.034Z,13.29
2022-11-09T06:04:38.373Z,13.41
2022-11-09T06:07:10.251Z,13.40
2022-11-09T06:09:42.580Z,13.30
2022-11-09T06:12:17.031Z,13.21
2022-11-09T06:14:49.392Z,13.42
2022-11-09T06:17:21.686Z,13.39
2022-11-09T06:19:54.311Z,13.56
2022-11-09T06:22:26.488Z,13.41
2022-11-09T06:24:59.153Z,13.46
2022-11-09T06:27:34.180Z,13.41
2022-11-09T06:30:07.422Z,13.43
2022-11-09T06:32:39.690Z,13.58
2022-11-09T06:35:12.613Z,13.57
2022-11-09T06:37:44.754Z,13.67
2022-11-09T06:40:18.303Z,13.71
2022-11-09T06:42:53.236Z,13.38
2022-11-09T06:45:25.872Z,13.35
2022-11-09T06:47:59.671Z,13.51
2022-11-09T06:50:36.836Z,13.48
2022-11-09T06:53:10.810Z,13.74
2022-11-09T06:55:49.925Z,13.63
2022-11-09T06:58:25.605Z,13.83
2022-11-09T07:00:58.746Z,13.56
2022-11-09T07:03:30.931Z,13.62
2022-11-09T07:06:08.896Z,13.76
2022-11-09T07:08:55.774Z,13.55
2022-11-09T07:11:31.811Z,13.58
2022-11-09T07:14:07.276Z,13.56
2022-11-09T07:16:39.814Z,13.85
2022-11-09T07:19:12.115Z,13.30
2022-11-09T07:21:44.651Z,13.26
2022-11-09T07:24:16.795Z,13.27
2022-11-09T07:26:51.440Z,13.17
2022-11-09T07:29:26.358Z,13.24
2022-11-09T07:31:59.393Z,13.19
2022-11-09T07:34:31.633Z,13.03
2022-11-09T07:37:04.315Z,12.85
2022-11-09T07:39:37.262Z,12.76
2022-11-09T07:42:09.933Z,12.77
2022-11-09T07:44:44.713Z,12.77
2022-11-09T07:47:18.405Z,13.18
2022-11-09T07:49:51.018Z,13.18
2022-11-09T07:52:23.775Z,13.07
2022-11-09T07:54:56.076Z,13.09
2022-11-09T07:57:28.763Z,12.97
2022-11-09T08:00:03.754Z,12.97
2022-11-09T08:02:36.453Z,12.84
2022-11-09T08:05:10.152Z,12.76
2022-11-09T08:07:42.874Z,13.04
2022-11-09T08:10:15.509Z,13.15
2022-11-09T08:12:48.623Z,13.18
2022-11-09T08:15:24.222Z,13.09
2022-11-09T08:17:57.263Z,13.21
2022-11-09T08:20:29.509Z,13.14
2022-11-09T08:23:04.879Z,12.89
2022-11-09T08:25:38.025Z,12.97
2022-11-09T08:28:14.765Z,13.06
2022-11-09T08:30:57.863Z,12.87
2022-11-09T08:33:31.662Z,12.96
2022-11-09T08:36:03.951Z,12.85
2022-11-09T08:38:36.542Z,13.07
2022-11-09T08:41:13.212Z,12.94
2022-11-09T08:43:46.710Z,12.85
2022-11-09T08:46:21.743Z,12.98
2022-11-09T08:48:54.425Z,13.03
2022-11-09T08:51:26.624Z,12.96
2022-11-09T08:53:59.263Z,13.03
2022-11-09T08:56:31.420Z,13.10
2022-11-09T08:59:04.147Z,13.08
2022-11-09T09:01:39.151Z,13.23
2022-11-09T09:04:11.704Z,13.37
2022-11-09T09:06:43.901Z,13.44
2022-11-09T09:09:16.638Z,13.18
2022-11-09T09:11:49.164Z,13.18
2022-11-09T09:14:21.745Z,13.55
2022-11-09T09:16:57.022Z,13.35
2022-11-09T09:19:29.746Z,13.29
2022-11-09T09:22:02.355Z,13.34
2022-11-09T09:24:35.637Z,13.05
2022-11-09T09:27:08.072Z,13.36
2022-11-09T09:29:40.726Z,13.33
2022-11-09T09:32:15.833Z,13.91
2022-11-09T09:34:48.797Z,13.89
2022-11-09T09:37:21.556Z,13.86
2022-11-09T09:39:54.636Z,13.91
2022-11-09T09:42:34.606Z,14.27
2022-11-09T09:45:12.356Z,14.36
2022-11-09T09:47:54.878Z,14.79
2022-11-09T09:50:31.164Z,14.28
2022-11-09T09:56:06.114Z,14.38
2022-11-09T09:58:42.753Z,14.39
2022-11-09T10:01:20.521Z,14.50
2022-11-09T10:04:00.152Z,14.38
2022-11-09T10:06:45.853Z,14.32
2022-11-09T10:09:30.746Z,13.96
2022-11-09T10:12:12.637Z,14.54
2022-11-09T10:15:01.992Z,14.76
2022-11-09T10:17:44.107Z,14.78
2022-11-09T10:20:35.076Z,14.65
2022-11-09T10:23:24.832Z,14.62
2022-11-09T10:26:07.898Z,14.91
2022-11-09T10:29:14.374Z,14.87
2022-11-09T10:31:40.025Z,14.51
2022-11-09T10:34:22.556Z,14.44
2022-11-09T10:37:06.951Z,14.42
2022-11-09T10:39:46.304Z,14.65
2022-11-09T10:42:18.794Z,14.66
2022-11-09T10:44:51.584Z,14.79
2022-11-09T10:47:24.507Z,15.28
2022-11-09T10:50:12.265Z,15.52
2022-11-09T10:52:47.896Z,15.27
2022-11-09T10:55:27.347Z,15.48
2022-11-09T10:58:03.342Z,15.49
2022-11-09T11:00:36.066Z,15.29
2022-11-09T11:03:19.957Z,15.62
2022-11-09T11:06:01.930Z,15.59
2022-11-09T11:08:43.081Z,15.48
2022-11-09T11:11:38.620Z,15.45
2022-11-09T11:14:23.054Z,15.74
2022-11-09T11:16:56.572Z,15.71
2022-11-09T11:19:38.682Z,15.87
2022-11-09T11:22:27.922Z,15.80
2022-11-09T11:25:05.019Z,16.16
2022-11-09T11:27:43.463Z,16.16
2022-11-09T11:30:19.404Z,16.26
2022-11-09T11:32:52.572Z,16.33
2022-11-09T11:35:34.135Z,16.55
2022-11-09T11:38:20.788Z,16.53
2022-11-09T11:41:05.281Z,16.63
2022-11-09T11:43:47.403Z,16.30
2022-11-09T11:46:31.050Z,16.63
2022-11-09T11:49:34.534Z,16.50
2022-11-09T11:52:12.603Z,16.51
2022-11-09T11:54:56.687Z,16.73
2022-11-09T11:57:38.413Z,16.81
2022-11-09T12:00:16.365Z,16.64
2022-11-09T12:03:18.411Z,16.38
2022-11-09T12:06:25.042Z,16.45
2022-11-09T12:09:25.684Z,16.29
2022-11-09T12:12:18.483Z,16.02
2022-11-09T12:15:10.442Z,16.30
2022-11-09T12:17:51.727Z,16.38
2022-11-09T12:20:32.405Z,16.39
2022-11-09T12:23:28.243Z,16.21
2022-11-09T12:26:16.158Z,15.79
2022-11-09T12:29:07.335Z,15.87
2022-11-09T12:32:03.485Z,16.11
2022-11-09T12:34:41.176Z,16.17
2022-11-09T12:37:17.571Z,16.38
2022-11-09T12:39:54.443Z,16.33
2022-11-09T12:42:33.763Z,16.44
2022-11-09T12:45:10.683Z,16.45
2022-11-09T12:47:48.524Z,16.22
2022-11-09T12:50:24.162Z,16.52
2022-11-09T12:52:56.891Z,16.66
2022-11-09T12:55:39.723Z,16.61
2022-11-09T12:58:24.487Z,16.16
2022-11-09T13:01:00.453Z,16.10
2022-11-09T13:03:37.761Z,16.11
2022-11-09T13:06:20.092Z,16.10
2022-11-09T13:09:04.125Z,16.11
2022-11-09T13:11:42.979Z,16.07
2022-11-09T13:14:36.329Z,16.14
2022-11-09T13:17:38.443Z,16.08
2022-11-09T13:20:58.355Z,16.16
2022-11-09T13:26:58.286Z,16.24
2022-11-09T13:29:33.133Z,16.05
2022-11-09T13:32:26.003Z,16.05
2022-11-09T13:35:00.085Z,16.09
2022-11-09T13:37:58.894Z,15.93
2022-11-09T13:40:50.446Z,15.80
2022-11-09T13:43:29.827Z,15.87
2022-11-09T13:46:05.932Z,15.97
2022-11-09T13:48:44.530Z,15.84
2022-11-09T13:51:20.127Z,15.75
2022-11-09T13:53:59.724Z,15.75
2022-11-09T13:56:40.443Z,15.53
2022-11-09T13:59:19.930Z,15.59
2022-11-09T14:01:55.390Z,15.83
2022-11-09T14:04:30.573Z,15.91
2022-11-09T14:07:07.167Z,15.74
2022-11-09T14:09:52.726Z,15.84
2022-11-09T14:12:42.403Z,15.85
2022-11-09T14:15:26.375Z,15.59
2022-11-09T14:18:11.485Z,15.57
2022-11-09T14:20:51.364Z,15.56
2022-11-09T14:23:27.647Z,15.58
2022-11-09T14:26:00.807Z,15.33
2022-11-09T14:28:37.888Z,15.53
2022-11-09T14:31:24.209Z,15.63
2022-11-09T14:34:05.133Z,15.38
2022-11-09T14:36:38.762Z,15.43
2022-11-09T14:39:43.087Z,15.36
2022-11-09T14:42:20.979Z,15.15
2022-11-09T14:44:56.724Z,15.04
2022-11-09T14:47:34.324Z,15.13
2022-11-09T14:50:23.406Z,15.16
2022-11-09T14:53:26.843Z,15.44
2022-11-09T14:56:08.006Z,15.19
2022-11-09T14:58:46.443Z,15.03
2022-11-09T15:01:33.684Z,15.05
2022-11-09T15:04:17.219Z,15.16
2022-11-09T15:07:21.775Z,15.14
2022-11-09T15:10:48.409Z,14.95
2022-11-09T15:13:21.997Z,14.83
2022-11-09T15:16:09.605Z,14.80
2022-11-09T15:22:38.526Z,14.66
2022-11-09T15:25:51.558Z,14.53
2022-11-09T15:28:29.597Z,14.57
2022-11-09T15:31:34.769Z,14.43
2022-11-09T15:34:25.158Z,14.51
2022-11-09T15:36:58.841Z,14.46
2022-11-09T15:39:31.121Z,14.75
2022-11-09T15:42:06.197Z,14.50
2022-11-09T15:44:38.000Z,14.39
2022-11-09T15:47:24.236Z,14.41
2022-11-09T15:49:56.118Z,14.23
2022-11-09T15:52:28.646Z,14.14
2022-11-09T15:55:03.565Z,14.03
2022-11-09T15:57:38.526Z,14.15
2022-11-09T16:00:19.404Z,14.10
2022-11-09T16:02:53.283Z,14.09
2022-11-09T16:05:28.042Z,14.30
2022-11-09T16:08:00.477Z,14.18
2022-11-09T16:10:37.637Z,14.11
2022-11-09T16:13:14.676Z,14.08
2022-11-09T16:15:46.556Z,14.05
2022-11-09T16:18:25.498Z,14.25
2022-11-09T16:20:58.804Z,13.93
2022-11-09T16:23:31.397Z,13.86
2022-11-09T16:26:07.038Z,14.03
2022-11-09T16:28:43.517Z,13.95
2022-11-09T16:31:19.065Z,14.03
2022-11-09T16:33:53.955Z,14.00
2022-11-09T16:36:28.039Z,14.11
2022-11-09T16:39:01.364Z,14.01
2022-11-09T16:41:34.397Z,13.90
2022-11-09T16:44:09.595Z,13.78
2022-11-09T16:46:43.958Z,13.83
2022-11-09T16:49:16.277Z,13.94
2022-11-09T16:51:51.717Z,13.74
2022-11-09T16:54:23.997Z,13.72
2022-11-09T16:56:56.121Z,13.88
2022-11-09T16:59:31.443Z,13.74
2022-11-09T17:02:03.447Z,13.64
2022-11-09T17:04:36.158Z,13.46
2022-11-09T17:07:08.761Z,13.66
2022-11-09T17:09:41.559Z,13.75
2022-11-09T17:12:14.516Z,13.61
2022-11-09T17:14:49.836Z,13.65
2022-11-09T17:17:22.935Z,13.88
2022-11-09T17:19:55.967Z,13.75
2022-11-09T17:22:28.334Z,13.75
2022-11-09T17:25:01.156Z,13.70
2022-11-09T17:27:33.354Z,13.54
2022-11-09T17:30:10.996Z,13.63
2022-11-09T17:32:44.157Z,13.33
2022-11-09T17:35:16.798Z,13.71
2022-11-09T17:37:49.077Z,13.42
2022-11-09T17:40:23.076Z,13.73
2022-11-09T17:42:55.406Z,13.34
2022-11-09T17:45:30.837Z,13.33
2022-11-09T17:48:03.115Z,13.41
2022-11-09T17:50:35.995Z,13.35
2022-11-09T17:53:08.315Z,13.13
2022-11-09T17:59:13.601Z,13.31
2022-11-09T18:02:28.485Z,13.26
2022-11-09T18:05:48.237Z,12.92
2022-11-09T18:12:13.405Z,13.02
2022-11-09T18:18:44.919Z,13.07
2022-11-09T18:21:18.680Z,13.36
2022-11-09T18:23:58.757Z,13.42
2022-11-09T18:26:31.636Z,13.55
2022-11-09T18:29:06.276Z,13.54
2022-11-09T18:31:39.406Z,13.53
2022-11-09T18:34:14.641Z,13.49
2022-11-09T18:36:46.477Z,13.94
2022-11-09T18:39:19.716Z,13.82
2022-11-09T18:41:52.555Z,13.98
2022-11-09T18:44:38.556Z,14.09
2022-11-09T18:47:10.603Z,13.98
2022-11-09T18:49:53.285Z,14.29
2022-11-09T18:52:28.366Z,13.92
2022-11-09T18:55:00.792Z,13.94
2022-11-09T18:57:33.188Z,14.00
2022-11-09T19:00:06.114Z,14.45
2022-11-09T19:02:38.342Z,14.29
2022-11-09T19:05:13.556Z,14.20
2022-11-09T19:07:45.396Z,14.09
2022-11-09T19:10:20.479Z,14.28
2022-11-09T19:12:52.446Z,14.12
2022-11-09T19:15:24.599Z,14.34
2022-11-09T19:17:57.288Z,14.13
2022-11-09T19:20:32.563Z,14.26
2022-11-09T19:23:04.557Z,13.97
2022-11-09T19:25:36.917Z,13.93
2022-11-09T19:28:09.074Z,13.95
2022-11-09T19:30:41.516Z,14.07
2022-11-09T19:33:13.956Z,13.93
2022-11-09T19:36:28.777Z,14.37
2022-11-09T19:38:52.748Z,14.25
2022-11-09T19:41:30.366Z,14.40
2022-11-09T19:44:02.327Z,14.07
2022-11-09T19:46:39.885Z,13.98
2022-11-09T19:49:11.606Z,13.90
2022-11-09T19:51:48.107Z,13.80
2022-11-09T19:54:20.086Z,13.76
2022-11-09T19:56:52.086Z,13.82
2022-11-09T19:59:24.586Z,13.79
2022-11-09T20:01:57.054Z,13.70
2022-11-09T20:04:29.125Z,13.68
2022-11-09T20:07:04.109Z,13.57
2022-11-09T20:09:36.328Z,13.53
2022-11-09T20:12:22.134Z,13.46
2022-11-09T20:14:56.208Z,13.82
2022-11-09T20:17:27.891Z,13.55
2022-11-09T20:19:59.366Z,13.35
2022-11-09T20:22:39.446Z,13.39
2022-11-09T20:25:11.984Z,13.37
2022-11-09T20:27:43.602Z,13.43
2022-11-09T20:30:15.856Z,13.33
2022-11-09T20:32:47.815Z,13.35
2022-11-09T20:35:20.079Z,13.42
2022-11-09T20:37:54.395Z,13.27
2022-11-09T20:40:26.269Z,13.23
2022-11-09T20:42:58.182Z,13.32
2022-11-09T20:45:29.841Z,13.32
2022-11-09T20:48:14.707Z,13.49
2022-11-09T20:50:54.561Z,13.46
2022-11-09T20:53:28.991Z,13.26
2022-11-09T20:56:00.355Z,13.15
2022-11-09T20:58:32.674Z,13.10
2022-11-09T21:01:06.528Z,13.11
2022-11-09T21:03:38.828Z,13.08
2022-11-09T21:06:20.394Z,13.05
2022-11-09T21:08:58.487Z,13.05
2022-11-09T21:11:58.357Z,12.88
2022-11-09T21:14:30.482Z,13.12
2022-11-09T21:17:06.534Z,13.08
2022-11-09T21:19:40.240Z,13.16
2022-11-09T21:22:11.906Z,13.17
2022-11-09T21:24:59.866Z,13.06
2022-11-09T21:27:48.017Z,12.97
2022-11-09T21:30:20.492Z,13.14
2022-11-09T21:32:51.743Z,12.99
2022-11-09T21:35:23.887Z,13.01
2022-11-09T21:37:55.640Z,12.98
2022-11-09T21:40:31.174Z,12.81
2022-11-09T21:43:02.768Z,13.03
2022-11-09T21:45:34.432Z,13.01
2022-11-09T21:48:09.064Z,12.89
2022-11-09T21:50:41.642Z,13.12
2022-11-09T21:53:15.743Z,13.25
2022-11-09T21:55:51.640Z,13.28
2022-11-09T21:58:40.512Z,13.08
2022-11-09T22:01:14.631Z,13.00
2022-11-09T22:03:48.044Z,13.08
2022-11-09T22:06:20.898Z,13.02
2022-11-09T22:08:53.125Z,13.02
2022-11-09T22:11:42.076Z,13.18
2022-11-09T22:14:28.408Z,13.08
2022-11-09T22:17:00.237Z,12.87
2022-11-09T22:19:43.975Z,12.96
2022-11-09T22:22:17.852Z,13.11
2022-11-09T22:24:49.106Z,12.94
2022-11-09T22:27:23.799Z,13.18
2022-11-09T22:29:55.545Z,13.06
2022-11-09T22:32:29.026Z,13.14
2022-11-09T22:35:00.671Z,13.16
2022-11-09T22:37:32.520Z,13.13
2022-11-09T22:40:03.965Z,13.02
2022-11-09T22:42:38.510Z,12.99
2022-11-09T22:45:10.615Z,12.94
2022-11-09T22:47:42.724Z,12.99
2022-11-09T22:50:13.808Z,13.02
2022-11-09T22:52:45.318Z,13.07
2022-11-09T22:55:16.548Z,13.05
2022-11-09T22:57:50.727Z,12.94
2022-11-09T23:00:23.756Z,13.04
2022-11-09T23:02:55.286Z,13.01
2022-11-09T23:05:26.329Z,12.98
2022-11-09T23:07:58.717Z,12.99
2022-11-09T23:10:29.819Z,12.74
2022-11-09T23:13:04.350Z,12.87
2022-11-09T23:15:35.571Z,12.87
2022-11-09T23:18:19.598Z,13.02
2022-11-09T23:20:50.987Z,13.12
2022-11-09T23:23:23.008Z,13.16
2022-11-09T23:25:54.160Z,12.99
2022-11-09T23:28:28.308Z,12.96
2022-11-09T23:31:03.045Z,13.10
2022-11-09T23:33:34.723Z,13.13
2022-11-09T23:36:07.631Z,13.16
2022-11-09T23:38:43.282Z,13.10
2022-11-09T23:41:16.987Z,12.96
2022-11-09T23:43:51.298Z,13.21
2022-11-09T23:46:22.461Z,13.27
2022-11-09T23:48:53.848Z,13.38
2022-11-09T23:51:24.701Z,12.92
2022-11-09T23:53:56.224Z,13.08
2022-11-09T23:56:27.072Z,13.28
2022-11-09T23:59:01.197Z,13.26
